• Join FlightAware (Why Join?)
  • Login
  • US Flag 
11:15PM EDT


 

Airport Tracker/Info


-or-


 

Live Flight TrackerFlight Track Log ✈ JZA7995 ✈ 21-Apr-2013 ✈ CYYZ - KDFW

Flight Track Log - Related Links

Times and Time Zones

All times are in EDT time to prevent confusion due to time zone crossing. See the JZA7995 flight status page for this flight to view local times or setup timezone preferences in your user account.

Time Position Orientation Groundspeed Altitude Reporting Facility
EDT Latitude Longitude Course Direction KTS MPH feet Rate Location/Type
07:01PM 43.6500 -79.6167 360° North 10 12 500  Level Toronto Center
07:03PM 43.6500 -79.6167 90° East 10 12 500  Level Toronto Center
07:04PM 43.6500 -79.6167 90° East 20 23 500  Level Toronto Center
07:05PM 43.6667 -79.5833 55° Northeast 60 69 500 900 Level Toronto Center
07:06PM 43.7000 -79.5333 47° Northeast 160 184 2,300 1,860 Climbing Toronto Center
07:07PM 43.7333 -79.5000 36° Northeast 200 230 4,300 2,160 Climbing Toronto Center
07:08PM 43.7833 -79.5667 316° Northwest 260 299 6,700 1,320 Climbing Toronto Center
07:09PM 43.8167 -79.6500 299° West 270 311 7,000 120 Climbing Toronto Center
07:10PM 43.8167 -79.7667 270° West 260 299 7,000 300 Level Toronto Center
07:11PM 43.8000 -79.8667 257° West 270 311 7,700 1,740 Climbing Toronto Center
07:12PM 43.8000 -79.9833 270° West 270 311 10,500 1,740 Climbing Toronto Center
07:13PM 43.7833 -80.0667 255° West 300 345 11,200 1,320 Climbing Toronto Center
07:14PM 43.7667 -80.2167 261° West 350 403 13,200 2,040 Climbing Toronto Center
07:15PM 43.7667 -80.3500 270° West 360 414 15,300 1,860 Climbing Toronto Center
07:16PM 43.7500 -80.4833 260° West 370 426 17,000 1,440 Climbing Toronto Center
07:17PM 43.7167 -80.6500 255° West 380 437 18,200 1,380 Climbing Toronto Center
07:18PM 43.6833 -80.7833 251° West 390 449 19,800 1,680 Climbing Toronto Center
07:19PM 43.6500 -80.9167 251° West 390 449 21,600 1,500 Climbing Toronto Center
07:20PM 43.6167 -81.0833 255° West 400 460 22,900 1,200 Climbing Toronto Center
07:21PM 43.5833 -81.2167 251° West 400 460 24,000 1,080 Climbing Toronto Center
07:22PM 43.5333 -81.3500 243° Southwest 410 472 25,100 1,020 Climbing Toronto Center
07:23PM 43.4500 -81.4667 225° Southwest 420 483 26,100 900 Climbing Toronto Center
07:24PM 43.3667 -81.5833 226° Southwest 430 495 26,900 840 Climbing Toronto Center
07:25PM 43.3000 -81.7000 232° Southwest 420 483 27,800 1,260 Climbing Toronto Center
07:26PM 43.2167 -81.8333 229° Southwest 410 472 29,500 1,500 Climbing Toronto Center
07:27PM 43.1333 -81.9167 216° Southwest 400 460 30,900 1,200 Climbing Toronto Center
07:28PM 43.0500 -82.0500 229° Southwest 400 460 32,000 540 Climbing Toronto Center
07:29PM 42.9833 -82.1333 222° Southwest 400 460 32,000  Level Toronto Center
07:30PM 42.9000 -82.2500 226° Southwest 390 449 32,000  Level Toronto Center
07:31PM 42.8403 -82.3697 236° Southwest 390 449 32,000 360 Level Cleveland Center
07:32PM 42.7656 -82.4753 226° Southwest 390 449 32,800 780 Climbing Cleveland Center
07:33PM 42.6889 -82.5803 225° Southwest 395 455 33,600 600 Climbing Cleveland Center
07:34PM 42.6119 -82.6878 226° Southwest 395 455 34,000 180 Climbing Cleveland Center
07:35PM 42.5347 -82.7922 225° Southwest 395 455 34,000  Level Cleveland Center
07:36PM 42.4578 -82.8994 226° Southwest 395 455 34,000  Level Cleveland Center
07:37PM 42.3825 -83.0033 226° Southwest 395 455 34,000  Level Cleveland Center
07:38PM 42.3053 -83.1072 225° Southwest 395 455 34,000  Level Cleveland Center
07:39PM 42.2278 -83.2164 226° Southwest 395 455 34,000 360 Level Cleveland Center
07:40PM 42.1417 -83.3303 224° Southwest 400 460 34,800 480 Climbing Cleveland Center
07:41PM 42.0642 -83.4361 225° Southwest 393 452 35,000 60 Climbing Cleveland Center
07:42PM 41.9903 -83.5503 229° Southwest 401 461 35,000 300 Level Cleveland Center
07:43PM 41.9206 -83.6669 231° Southwest 401 461 35,600 480 Climbing Cleveland Center
07:44PM 41.8486 -83.7833 230° Southwest 406 467 36,000 180 Climbing Cleveland Center
07:45PM 41.7783 -83.9025 232° Southwest 411 473 36,000  Level Cleveland Center
07:46PM 41.7061 -84.0183 230° Southwest 416 479 36,000  Level Cleveland Center
07:47PM 41.6358 -84.1369 232° Southwest 416 479 36,000  Level Cleveland Center
07:48PM 41.5614 -84.2550 230° Southwest 416 479 36,000  Level Cleveland Center
07:49PM 41.5017 -84.3597 233° Southwest 410 472 36,000  Level Cleveland Center
07:51PM 41.3694 -84.5669 230° Southwest 409 471 36,000  Level Chicago Center
07:52PM 41.2969 -84.6844 231° Southwest 410 472 36,000  Level Chicago Center
07:53PM 41.2219 -84.8011 230° Southwest 412 474 36,000  Level Chicago Center
07:54PM 41.1481 -84.9192 230° Southwest 413 475 36,000  Level Chicago Center
07:55PM 41.0742 -85.0350 230° Southwest 411 473 36,000  Level Chicago Center
07:56PM 41.0022 -85.1506 231° Southwest 407 468 36,000  Level Chicago Center
07:57PM 40.9264 -85.2639 228° Southwest 409 471 36,000  Level Chicago Center
07:58PM 40.8306 -85.3978 227° Southwest 415 478 36,000  Level Chicago Center
07:59PM 40.7522 -85.5097 227° Southwest 415 478 36,000  Level Chicago Center
08:00PM 40.6733 -85.6211 227° Southwest 415 478 36,000  Level Chicago Center
08:01PM 40.5942 -85.7311 227° Southwest 414 476 36,000  Level Chicago Center
08:02PM 40.5167 -85.8419 227° Southwest 413 475 36,000  Level Chicago Center
08:04PM 40.4386 -85.9514 227° Southwest 410 472 36,000  Level Chicago Center
08:05PM 40.3447 -86.0825 227° Southwest 411 473 36,000  Level Chicago Center
08:06PM 40.2617 -86.1881 224° Southwest 416 479 36,000  Level Chicago Center
08:07PM 40.1717 -86.2822 219° Southwest 417 480 36,000  Level Chicago Center
08:08PM 40.0828 -86.3817 221° Southwest 420 483 36,000  Level Chicago Center
08:08PM 40.0447 -86.4211 218° Southwest 422 486 36,000  Level Indianapolis Center
08:09PM 39.9556 -86.5194 220° Southwest 420 483 36,000  Level Indianapolis Center
08:10PM 39.8672 -86.6169 220° Southwest 415 478 36,000  Level Indianapolis Center
08:11PM 39.7986 -86.7383 234° Southwest 415 478 36,000  Level Indianapolis Center
08:12PM 39.7292 -86.8547 232° Southwest 410 472 36,000  Level Indianapolis Center
08:13PM 39.6603 -86.9739 233° Southwest 410 472 36,000  Level Indianapolis Center
08:14PM 39.5928 -87.0917 233° Southwest 408 470 36,000  Level Indianapolis Center
08:15PM 39.5244 -87.2078 233° Southwest 405 466 36,000  Level Indianapolis Center
08:16PM 39.4553 -87.3250 233° Southwest 408 470 36,000  Level Indianapolis Center
08:17PM 39.3706 -87.4706 233° Southwest 420 483 36,000  Level Indianapolis Center
08:18PM 39.2992 -87.5914 233° Southwest 424 488 36,000  Level Indianapolis Center
08:19PM 39.2283 -87.7133 233° Southwest 425 489 36,000  Level Indianapolis Center
08:20PM 39.1553 -87.8339 232° Southwest 426 490 36,000  Level Indianapolis Center
08:21PM 39.0833 -87.9550 233° Southwest 426 490 36,000  Level Indianapolis Center
08:22PM 39.0122 -88.0739 232° Southwest 422 486 36,000  Level Indianapolis Center
08:23PM 38.9392 -88.1950 232° Southwest 425 489 36,000  Level Indianapolis Center
08:24PM 38.8647 -88.3181 232° Southwest 428 493 36,000  Level Kansas City Center
08:25PM 38.7781 -88.4631 233° Southwest 427 491 36,000  Level Kansas City Center
08:26PM 38.7047 -88.5817 232° Southwest 425 489 36,000  Level Kansas City Center
08:28PM 38.6439 -88.6811 232° Southwest 423 487 36,000  Level Kansas City Center
08:29PM 38.5533 -88.8300 232° Southwest 432 497 36,000  Level Kansas City Center
08:30PM 38.4789 -88.9506 232° Southwest 432 497 36,000  Level Kansas City Center
08:31PM 38.3989 -89.0778 231° Southwest 429 494 36,000  Level Kansas City Center
08:32PM 38.3283 -89.1942 232° Southwest 419 482 36,000  Level Kansas City Center
08:33PM 38.2572 -89.3092 232° Southwest 414 476 36,000  Level Kansas City Center
08:34PM 38.1806 -89.4325 232° Southwest 414 476 36,000  Level Kansas City Center
08:35PM 38.1083 -89.5475 231° Southwest 415 478 36,000  Level Kansas City Center
08:36PM 38.0342 -89.6656 231° Southwest 423 487 36,000  Level Kansas City Center
08:37PM 37.9547 -89.7914 231° Southwest 425 489 36,000  Level Kansas City Center
08:38PM 37.8803 -89.9089 231° Southwest 426 490 36,000  Level Kansas City Center
08:39PM 37.8094 -90.0200 231° Southwest 424 488 36,000  Level Kansas City Center
08:40PM 37.7372 -90.1339 231° Southwest 420 483 36,000  Level Kansas City Center
08:41PM 37.6650 -90.2481 231° Southwest 417 480 36,000  Level Kansas City Center
08:42PM 37.6014 -90.3692 236° Southwest 412 474 36,000  Level Kansas City Center
08:43PM 37.5369 -90.4900 236° Southwest 414 476 36,000  Level Kansas City Center
08:44PM 37.4575 -90.6361 236° Southwest 419 482 36,000  Level Kansas City Center
08:45PM 37.3919 -90.7561 236° Southwest 418 481 36,000  Level Kansas City Center
08:46PM 37.3331 -90.8644 236° Southwest 410 472 36,000  Level Kansas City Center
08:47PM 37.2531 -91.0083 235° Southwest 417 480 36,000  Level Memphis Center
08:48PM 37.1903 -91.1256 236° Southwest 410 472 36,000  Level Kansas City Center
08:49PM 37.1233 -91.2481 236° Southwest 420 483 36,000  Level Kansas City Center
08:50PM 37.0556 -91.3708 235° Southwest 424 488 36,000  Level Kansas City Center
08:51PM 36.9903 -91.4922 236° Southwest 421 484 36,000  Level Kansas City Center
08:52PM 36.9219 -91.6133 235° Southwest 422 486 36,000  Level Kansas City Center
08:53PM 36.8578 -91.7311 236° Southwest 419 482 36,000  Level Memphis Center
08:54PM 36.7939 -91.8467 235° Southwest 419 482 36,000  Level Memphis Center
08:55PM 36.7278 -91.9619 234° Southwest 419 482 36,000  Level Memphis Center
08:56PM 36.6703 -92.0694 236° Southwest 419 482 36,000  Level Memphis Center
08:57PM 36.6017 -92.1869 234° Southwest 419 482 36,000  Level Memphis Center
08:58PM 36.5333 -92.3067 235° Southwest 424 488 36,000  Level Memphis Center
08:59PM 36.4625 -92.4342 235° Southwest 419 482 36,000  Level Memphis Center
09:00PM 36.3981 -92.5483 235° Southwest 419 482 36,000  Level Memphis Center
09:01PM 36.3333 -92.6600 234° Southwest 414 476 36,000  Level Memphis Center
09:02PM 36.2686 -92.7742 235° Southwest 414 476 36,000  Level Memphis Center
09:03PM 36.1997 -92.8931 234° Southwest 422 486 36,000  Level Memphis Center
09:04PM 36.1303 -93.0142 235° Southwest 422 486 36,000  Level Memphis Center
09:05PM 36.0611 -93.1325 234° Southwest 427 491 36,000  Level Memphis Center
09:06PM 35.9958 -93.2458 235° Southwest 427 491 36,000  Level Memphis Center
09:07PM 35.9264 -93.3614 233° Southwest 421 484 36,000  Level Memphis Center
09:08PM 35.8633 -93.4717 235° Southwest 416 479 36,000  Level Memphis Center
09:09PM 35.7981 -93.5819 234° Southwest 416 479 36,000  Level Memphis Center
09:10PM 35.7350 -93.6767 231° Southwest 416 479 36,000  Level Memphis Center
09:11PM 35.6611 -93.7836 230° Southwest 411 473 36,000  Level Memphis Center
09:12PM 35.5853 -93.8875 228° Southwest 411 473 36,000  Level Memphis Center
09:13PM 35.5094 -93.9889 227° Southwest 411 473 36,000  Level Memphis Center
09:14PM 35.4375 -94.0928 230° Southwest 411 473 36,000  Level Memphis Center
09:16PM 35.2603 -94.3422 229° Southwest 396 456 36,000  Level Fort Worth Center
09:17PM 35.1856 -94.4442 228° Southwest 401 461 36,000  Level Fort Worth Center
09:18PM 35.1269 -94.5247 228° Southwest 401 461 36,000  Level Fort Worth Center
09:19PM 35.0481 -94.6339 229° Southwest 393 452 36,000  Level Fort Worth Center
09:20PM 34.9667 -94.7278 223° Southwest 393 452 36,000  Level Fort Worth Center
09:21PM 34.8831 -94.8192 222° Southwest 405 466 36,000  Level Fort Worth Center
09:22PM 34.7892 -94.9256 223° Southwest 411 473 36,000 -420 Level Fort Worth Center
09:23PM 34.7033 -95.0114 219° Southwest 411 473 35,200 -540 Descending Fort Worth Center
09:24PM 34.5869 -95.0350 189° South 400 460 35,000 -120 Descending Fort Worth Center
09:25PM 34.4589 -94.9906 164° South 424 488 35,000 -720 Level Fort Worth Center
09:26PM 34.3286 -94.9464 164° South 466 536 33,600 -1,500 Descending Fort Worth Center
09:27PM 34.2006 -94.9025 164° South 471 542 32,100 -1,500 Descending Fort Worth Center
09:28PM 34.0728 -94.8811 172° South 471 542 30,600 -1,500 Descending Fort Worth Center
09:29PM 33.9611 -94.9344 202° Southwest 431 496 29,100 -1,500 Descending Fort Worth Center
09:30PM 33.9006 -95.0436 236° Southwest 378 435 27,600 -1,500 Descending Fort Worth Center
09:31PM 33.8569 -95.1675 247° West 375 432 26,100 -1,500 Descending Fort Worth Center
09:32PM 33.8111 -95.2861 245° Southwest 388 447 24,600 -1,080 Descending Fort Worth Center
09:33PM 33.7672 -95.4097 247° West 393 452 24,000 -300 Descending Fort Worth Center
09:34PM 33.7189 -95.5331 245° Southwest 404 465 24,000  Level Fort Worth Center
09:35PM 33.6769 -95.6536 247° West 410 472 24,000  Level Fort Worth Center
09:36PM 33.6328 -95.7794 247° West 410 472 24,000  Level Fort Worth Center
09:37PM 33.5842 -95.9050 245° Southwest 410 472 24,000 -1,380 Level Fort Worth Center
09:38PM 33.5397 -96.0253 246° West 399 459 21,300 -3,480 Descending Fort Worth Center
09:39PM 33.5011 -96.1281 246° West 392 451 17,100 -4,140 Descending Fort Worth Center
09:40PM 33.4564 -96.2508 246° West 371 427 13,100 -3,000 Descending Fort Worth Center
09:41PM 33.4236 -96.3358 245° Southwest 335 386 11,200 -1,140 Descending Fort Worth Center
09:42PM 33.3806 -96.4233 240° Southwest 294 338 10,900 -900 Descending Fort Worth Center
09:43PM 33.3350 -96.4861 229° Southwest 279 321 9,500 -1,500 Descending Fort Worth Center
09:44PM 33.3022 -96.5733 246° West 266 306 7,900 -1,560 Descending Fort Worth Center
09:45PM 33.2736 -96.6531 247° West 261 300 6,400 -1,500 Descending Fort Worth Center
09:46PM 33.2489 -96.7253 248° West 261 300 5,000 -720 Descending Fort Worth Center
09:47PM 33.2161 -96.8125 246° West 256 295 5,000  Level Fort Worth Center
09:48PM 33.1850 -96.8747 239° Southwest 250 288 5,000  Level Fort Worth Center
09:49PM 33.1478 -96.9419 237° Southwest 227 261 5,000 -540 Level Fort Worth Center
09:50PM 33.1228 -96.9942 240° Southwest 213 245 4,000 -600 Descending Fort Worth Center
09:51PM 33.0728 -97.0094 194° South 171 197 3,900 -540 Descending Fort Worth Center
09:52PM 33.0269 -97.0094 180° South 171 197 3,000 -960 Descending Fort Worth Center
09:53PM 32.9808 -97.0097 180° South 171 197 2,000 -1,020 Descending Fort Worth Center